createdAt,value
2024-03-01T00:03:20.625Z,1.40
2024-03-01T00:08:24.024Z,1.30
2024-03-01T00:13:28.900Z,1.15
2024-03-01T00:18:32.417Z,1.20
2024-03-01T00:23:36.456Z,1.30
2024-03-01T00:28:41.242Z,1.08
2024-03-01T00:33:44.692Z,1.30
2024-03-01T00:38:48.123Z,1.48
2024-03-01T00:43:53.111Z,1.17
2024-03-01T00:48:56.737Z,1.27
2024-03-01T00:54:00.780Z,1.20
2024-03-01T00:59:05.616Z,1.00
2024-03-01T01:04:09.225Z,1.20
2024-03-01T01:09:13.185Z,1.27
2024-03-01T01:14:18.061Z,1.20
2024-03-01T01:19:21.613Z,1.10
2024-03-01T01:24:25.182Z,1.10
2024-03-01T01:29:30.149Z,1.27
2024-03-01T01:34:33.709Z,1.30
2024-03-01T01:39:37.245Z,1.00
2024-03-01T01:44:42.126Z,1.13
2024-03-01T01:49:45.834Z,1.30
2024-03-01T01:54:49.630Z,1.00
2024-03-01T01:59:55.888Z,1.02
2024-03-01T02:05:01.850Z,1.00
2024-03-01T02:10:17.734Z,1.13
2024-03-01T02:15:23.374Z,1.05
2024-03-01T02:20:30.843Z,0.90
2024-03-01T02:25:35.897Z,1.08
2024-03-01T02:30:39.453Z,0.85
2024-03-01T02:35:42.848Z,0.90
2024-03-01T02:40:47.641Z,0.90
2024-03-01T02:45:51.066Z,0.90
2024-03-01T02:50:54.714Z,0.93
2024-03-01T02:55:59.473Z,0.90
2024-03-01T03:01:02.992Z,0.93
2024-03-01T03:06:07.147Z,0.85
2024-03-01T03:11:12.035Z,0.75
2024-03-01T03:16:15.597Z,0.82
2024-03-01T03:21:19.112Z,0.80
2024-03-01T03:26:23.906Z,0.75
2024-03-01T03:31:27.435Z,0.70
2024-03-01T03:36:30.902Z,0.90
2024-03-01T03:41:36.098Z,0.75
2024-03-01T03:46:39.493Z,0.88
2024-03-01T03:51:43.054Z,0.90
2024-03-01T03:56:47.851Z,0.93
2024-03-01T04:01:51.433Z,0.80
2024-03-01T04:06:54.970Z,0.90
2024-03-01T04:12:00.313Z,0.80
2024-03-01T04:17:03.863Z,0.70
2024-03-01T04:22:09.694Z,0.80
2024-03-01T04:27:14.497Z,0.80
2024-03-01T04:32:18.850Z,0.80
2024-03-01T04:37:22.416Z,0.77
2024-03-01T04:42:27.506Z,0.80
2024-03-01T04:47:31.042Z,0.77
2024-03-01T04:52:34.690Z,0.80
2024-03-01T04:57:39.749Z,0.70
2024-03-01T05:02:44.236Z,0.80
2024-03-01T05:07:49.740Z,0.85
2024-03-01T05:12:54.692Z,0.65
2024-03-01T05:17:58.445Z,0.90
2024-03-01T05:23:01.939Z,0.82
2024-03-01T05:28:07.678Z,0.75
2024-03-01T05:33:13.730Z,0.75
2024-03-01T05:38:17.227Z,0.70
2024-03-01T05:43:24.807Z,0.70
2024-03-01T05:48:28.442Z,0.70
2024-03-01T05:53:31.880Z,0.70
2024-03-01T05:58:36.721Z,0.60
2024-03-01T06:03:40.574Z,0.70
2024-03-01T06:08:44.419Z,0.70
2024-03-01T06:13:49.241Z,0.80
2024-03-01T06:18:52.717Z,0.90
2024-03-01T06:23:56.126Z,0.73
2024-03-01T06:29:00.875Z,0.90
2024-03-01T06:34:05.049Z,0.70
2024-03-01T06:39:09.830Z,0.80
2024-03-01T06:44:15.371Z,0.88
2024-03-01T06:49:19.703Z,0.90
2024-03-01T06:54:23.257Z,0.88
2024-03-01T06:59:28.058Z,0.80
2024-03-01T07:04:31.873Z,0.80
2024-03-01T07:09:36.167Z,0.80
2024-03-01T07:14:41.494Z,0.85
2024-03-01T07:19:45.039Z,0.90
2024-03-01T07:24:48.461Z,0.80
2024-03-01T07:29:53.208Z,0.98
2024-03-01T07:34:56.636Z,0.90
2024-03-01T07:40:00.481Z,0.90
2024-03-01T07:45:06.916Z,1.00
2024-03-01T07:50:10.464Z,1.20
2024-03-01T07:55:13.962Z,1.10
2024-03-01T08:00:20.436Z,1.00
2024-03-01T08:05:23.912Z,1.10
2024-03-01T08:10:34.176Z,1.15
2024-03-01T08:15:40.468Z,1.17
2024-03-01T08:21:07.147Z,1.10
2024-03-01T08:26:18.758Z,1.30
2024-03-01T08:31:34.640Z,1.20
2024-03-01T08:36:38.941Z,1.10
2024-03-01T08:41:46.046Z,1.05
2024-03-01T08:46:51.073Z,1.10
2024-03-01T08:51:54.625Z,1.00
2024-03-01T08:57:07.676Z,1.13
2024-03-01T09:02:51.936Z,1.20
2024-03-01T09:07:55.965Z,1.00
2024-03-01T09:12:59.720Z,1.05
2024-03-01T09:18:05.835Z,1.10
2024-03-01T09:23:15.629Z,1.10
2024-03-01T09:28:22.089Z,1.00
2024-03-01T09:33:27.421Z,0.88
2024-03-01T09:38:31.872Z,0.95
2024-03-01T09:43:43.160Z,1.10
2024-03-01T09:49:07.287Z,1.00
2024-03-01T09:54:35.713Z,0.90
2024-03-01T09:59:49.003Z,1.10
2024-03-01T10:05:24.568Z,1.00
2024-03-01T10:10:47.927Z,1.00
2024-03-01T10:16:10.288Z,0.90
2024-03-01T10:21:35.023Z,0.90
2024-03-01T10:26:47.640Z,0.90
2024-03-01T10:32:06.648Z,0.88
2024-03-01T10:37:21.122Z,0.90
2024-03-01T10:42:29.639Z,0.90
2024-03-01T10:47:34.707Z,0.70
2024-03-01T10:52:43.901Z,0.77
2024-03-01T10:58:06.703Z,0.80
2024-03-01T11:03:21.851Z,0.80
2024-03-01T11:08:38.475Z,0.90
2024-03-01T11:13:45.518Z,0.70
2024-03-01T11:18:54.734Z,0.70
2024-03-01T11:24:05.282Z,0.75
2024-03-01T11:29:20.588Z,0.85
2024-03-01T11:34:38.312Z,0.82
2024-03-01T11:39:56.398Z,0.60
2024-03-01T11:45:15.472Z,0.80
2024-03-01T11:50:51.193Z,0.90
2024-03-01T11:56:25.594Z,0.80
2024-03-01T12:01:46.976Z,0.77
2024-03-01T12:07:12.691Z,0.70
2024-03-01T12:12:33.747Z,0.70
2024-03-01T12:17:51.151Z,0.70
2024-03-01T12:23:16.642Z,0.70
2024-03-01T12:28:50.617Z,0.77
2024-03-01T12:34:23.419Z,0.80
2024-03-01T12:39:30.189Z,0.70
2024-03-01T12:44:52.670Z,0.77
2024-03-01T12:50:18.227Z,0.80
2024-03-01T12:55:35.387Z,0.77
2024-03-01T13:00:53.401Z,0.80
2024-03-01T13:05:57.692Z,0.65
2024-03-01T13:11:07.005Z,0.80
2024-03-01T13:16:17.399Z,0.60
2024-03-01T13:21:30.618Z,0.68
2024-03-01T13:26:43.840Z,0.73
2024-03-01T13:32:05.368Z,0.70
2024-03-01T13:37:15.323Z,0.70
2024-03-01T13:42:34.310Z,0.57
2024-03-01T13:47:45.888Z,0.77
2024-03-01T13:52:49.676Z,0.65
2024-03-01T13:57:53.503Z,0.65
2024-03-01T14:02:58.393Z,0.63
2024-03-01T14:08:02.824Z,0.63
2024-03-01T14:13:09.047Z,0.60
2024-03-01T14:18:15.700Z,0.65
2024-03-01T14:23:19.201Z,0.68
2024-03-01T14:28:22.988Z,0.60
2024-03-01T14:33:28.365Z,0.60
2024-03-01T14:38:32.201Z,0.60
2024-03-01T14:43:46.363Z,0.60
2024-03-01T14:48:51.504Z,0.70
2024-03-01T14:53:55.063Z,0.70
2024-03-01T14:58:58.821Z,0.70
2024-03-01T15:04:03.659Z,0.63
2024-03-01T15:09:08.115Z,0.70
2024-03-01T15:14:13.328Z,0.50
2024-03-01T15:19:19.837Z,0.70
2024-03-01T15:24:25.515Z,0.60
2024-03-01T15:29:29.299Z,0.60
2024-03-01T15:34:34.455Z,0.60
2024-03-01T15:39:37.944Z,0.60
2024-03-01T15:44:41.368Z,0.60
2024-03-01T15:49:46.209Z,0.60
2024-03-01T15:54:50.617Z,0.70
2024-03-01T15:59:54.089Z,0.70
2024-03-01T16:04:58.952Z,0.70
2024-03-01T16:10:03.003Z,0.63
2024-03-01T16:15:10.363Z,0.60
2024-03-01T16:20:16.337Z,0.50
2024-03-01T16:25:20.153Z,0.75
2024-03-01T16:30:29.577Z,0.50
2024-03-01T16:36:10.192Z,0.55
2024-03-01T16:41:38.350Z,0.60
2024-03-01T16:46:43.813Z,0.70
2024-03-01T16:51:54.057Z,0.70
2024-03-01T16:57:02.065Z,0.55
2024-03-01T17:02:09.472Z,0.70
2024-03-01T17:07:24.766Z,0.70
2024-03-01T17:12:28.333Z,0.73
2024-03-01T17:17:33.418Z,0.80
2024-03-01T17:22:38.568Z,0.88
2024-03-01T17:27:42.071Z,1.00
2024-03-01T17:32:49.413Z,0.90
2024-03-01T17:37:55.158Z,1.10
2024-03-01T17:42:59.971Z,0.90
2024-03-01T17:48:03.594Z,0.90
2024-03-01T17:53:10.594Z,0.80
2024-03-01T17:58:14.629Z,0.70
2024-03-01T18:03:18.183Z,1.00
2024-03-01T18:08:23.008Z,1.05
2024-03-01T18:13:28.304Z,0.90
2024-03-01T18:18:32.243Z,1.05
2024-03-01T18:23:37.077Z,1.00
2024-03-01T18:28:40.843Z,1.13
2024-03-01T18:33:44.288Z,0.88
2024-03-01T18:38:49.142Z,1.00
2024-03-01T18:43:56.245Z,0.82
2024-03-01T18:48:59.866Z,0.67
2024-03-01T18:54:05.312Z,0.98
2024-03-01T18:59:09.586Z,0.90
2024-03-01T19:04:13.128Z,0.80
2024-03-01T19:09:17.956Z,0.93
2024-03-01T19:14:21.966Z,0.70
2024-03-01T19:19:25.451Z,0.80
2024-03-01T19:24:30.372Z,0.80
2024-03-01T19:29:34.943Z,0.80
2024-03-01T19:34:38.459Z,0.85
2024-03-01T19:39:43.314Z,0.80
2024-03-01T19:44:46.796Z,1.00
2024-03-01T19:49:50.256Z,0.75
2024-03-01T19:54:55.066Z,0.70
2024-03-01T19:59:58.497Z,0.70
2024-03-01T20:05:01.917Z,0.90
2024-03-01T20:10:08.631Z,0.90
2024-03-01T20:15:13.995Z,1.20
2024-03-01T20:20:17.629Z,0.80
2024-03-01T20:25:25.720Z,1.20
2024-03-01T20:30:29.353Z,2.00
2024-03-01T20:35:32.793Z,2.58
2024-03-01T20:40:37.611Z,3.05
2024-03-01T20:45:41.095Z,8.98
2024-03-01T20:50:44.786Z,8.50
2024-03-01T20:55:49.704Z,8.48
2024-03-01T21:00:53.277Z,8.80
2024-03-01T21:05:56.784Z,9.10
2024-03-01T21:11:01.682Z,8.50
2024-03-01T21:16:06.440Z,8.32
2024-03-01T21:21:09.897Z,9.40
2024-03-01T21:26:14.743Z,8.65
2024-03-01T21:31:18.164Z,8.82
2024-03-01T21:36:21.649Z,8.40
2024-03-01T21:41:26.530Z,8.30
2024-03-01T21:46:30.352Z,8.00
2024-03-01T21:51:33.926Z,8.30
2024-03-01T21:56:38.939Z,8.55
2024-03-01T22:01:42.516Z,8.07
2024-03-01T22:06:46.122Z,7.93
2024-03-01T22:11:50.960Z,7.80
2024-03-01T22:16:54.405Z,7.97
2024-03-01T22:21:57.885Z,7.38
2024-03-01T22:27:02.765Z,7.80
2024-03-01T22:32:07.369Z,8.70
2024-03-01T22:37:10.775Z,7.90
2024-03-01T22:42:15.675Z,8.07
2024-03-01T22:47:19.259Z,7.72
2024-03-01T22:52:33.263Z,7.00
2024-03-01T22:57:41.797Z,7.20
2024-03-01T23:02:45.299Z,7.47
2024-03-01T23:07:48.721Z,7.03
2024-03-01T23:12:53.645Z,6.82
2024-03-01T23:17:57.117Z,6.78
2024-03-01T23:23:01.353Z,6.50
2024-03-01T23:28:07.763Z,6.93
2024-03-01T23:33:11.389Z,6.22
2024-03-01T23:38:15.039Z,6.65
2024-03-01T23:43:19.949Z,5.70
2024-03-01T23:48:25.156Z,6.10
2024-03-01T23:53:28.620Z,5.93
2024-03-01T23:58:33.406Z,5.63
